ADDS METAR Data INFO
IDs: Format: Raw Decoded Include TAF

Data at: 0841 UTC 27 Jun 2017

KPOY 270835Z AUTO 33008KT 10SM CLR 20/M01 A2986 RMK AO2
KPOY 270815Z AUTO 26011G17KT 10SM CLR 22/M01 A2986 RMK AO2
KPOY 270755Z AUTO 25012KT 10SM CLR 22/M01 A2986 RMK AO2
KPOY 270735Z AUTO 25010KT 10SM CLR 21/M01 A2986 RMK AO2
KPOY 270715Z AUTO 24007KT 10SM CLR 21/M01 A2986 RMK AO2
KPOY 270655Z AUTO 23005KT 10SM CLR 23/M02 A2986 RMK AO2
KPOY 270635Z AUTO 14005KT 10SM CLR 20/M01 A2987 RMK AO2
KPOY 270615Z AUTO 25006KT 10SM CLR 20/M01 A2987 RMK AO2
KPOY 270555Z AUTO 25008KT 10SM CLR 20/M01 A2987 RMK AO2
KPOY 270535Z AUTO 26007KT 10SM CLR 20/M02 A2988 RMK AO2
KPOY 270515Z AUTO 28005KT 10SM CLR 20/M03 A2988 RMK AO2
KPOY 270455Z AUTO 29004KT 10SM CLR 22/M04 A2988 RMK AO2
KPOY 270435Z AUTO 30005KT 10SM CLR 21/M05 A2988 RMK AO2
KPOY 270415Z AUTO 31003KT 10SM CLR 22/M04 A2989 RMK AO2
KPOY 270355Z AUTO 00000KT 10SM CLR 23/M07 A2989 RMK AO2
KPOY 270335Z AUTO 00000KT 10SM CLR 25/M07 A2989 RMK AO2
KPOY 270315Z AUTO 11005KT 10SM CLR 26/M06 A2989 RMK AO2
KPOY 270255Z AUTO 15009G14KT 10SM CLR 26/M05 A2989 RMK AO2
KPOY 270235Z AUTO 16005KT 10SM CLR 26/M05 A2990 RMK AO2
KPOY 270215Z AUTO 17009KT 10SM CLR 27/M04 A2990 RMK AO2
KPOY 270155Z AUTO 14006KT 10SM CLR 28/M05 A2992 RMK AO2
KPOY 270135Z AUTO 15005KT 10SM CLR 30/M03 A2992 RMK AO2
KPOY 270115Z AUTO 14010KT 10SM CLR 28/M03 A2992 RMK AO2
KPOY 270055Z AUTO 15009G14KT 10SM CLR 29/M02 A2993 RMK AO2
KPOY 270035Z AUTO 14009G17KT 10SM CLR 30/M03 A2994 RMK AO2
KPOY 270015Z AUTO 14010KT 10SM CLR 31/M03 A2994 RMK AO2
KPOY 262355Z AUTO 14013KT 10SM CLR 31/M04 A2995 RMK AO2 LTG DSNT W
KPOY 262335Z AUTO 14013G18KT 10SM CLR 32/M03 A2996 RMK AO2
KPOY 262315Z AUTO 13013G17KT 10SM CLR 32/M03 A2997 RMK AO2
KPOY 262255Z AUTO 12012G18KT 10SM CLR 31/M03 A2998 RMK AO2
KPOY 262235Z AUTO 13011G19KT 10SM CLR 31/M03 A2999 RMK AO2 LTG DSNT W
KPOY 262215Z AUTO 13013G18KT 10SM CLR 31/M03 A3000 RMK AO2
KPOY 262155Z AUTO 12010G18KT 10SM CLR 31/M03 A3002 RMK AO2
KPOY 262135Z AUTO 14014G20KT 10SM CLR 31/M02 A3003 RMK AO2
KPOY 262115Z AUTO 15011G17KT 10SM CLR 31/M02 A3004 RMK AO2
KPOY 262055Z AUTO 14012G18KT 10SM CLR 30/M02 A3004 RMK AO2
KPOY 262035Z AUTO 12013G16KT 10SM CLR 30/M02 A3006 RMK AO2
KPOY 262015Z AUTO 15013KT 10SM CLR 30/M01 A3007 RMK AO2
KPOY 261955Z AUTO 15014G17KT 10SM CLR 29/M01 A3009 RMK AO2
KPOY 261935Z AUTO 16011G17KT 10SM CLR 28/00 A3009 RMK AO2
KPOY 261915Z AUTO 14011G15KT 10SM CLR 28/00 A3010 RMK AO2
KPOY 261855Z AUTO 15009G17KT 10SM CLR 28/00 A3011 RMK AO2
KPOY 261835Z AUTO 13013G18KT 10SM CLR 26/00 A3012 RMK AO2
KPOY 261815Z AUTO 13015G20KT 10SM CLR 26/00 A3013 RMK AO2
KPOY 261755Z AUTO 13015G21KT 10SM CLR 26/00 A3014 RMK AO2
KPOY 261735Z AUTO 14013G19KT 10SM CLR 25/00 A3015 RMK AO2
KPOY 261715Z AUTO 15015G18KT 10SM CLR 25/00 A3016 RMK AO2
KPOY 261655Z AUTO 14013KT 10SM CLR 23/01 A3017 RMK AO2
KPOY 261635Z AUTO 14013KT 10SM CLR 23/01 A3017 RMK AO2
KPOY 261615Z AUTO 15010KT 10SM CLR 22/01 A3018 RMK AO2
KPOY 261555Z AUTO 15011G15KT 10SM CLR 22/01 A3018 RMK AO2
KPOY 261535Z AUTO 14012KT 10SM CLR 21/00 A3019 RMK AO2
KPOY 261515Z AUTO 13011KT 10SM CLR 21/00 A3019 RMK AO2
KPOY 261455Z AUTO 14010KT 10SM CLR 20/00 A3020 RMK AO2
KPOY 261435Z AUTO 14007KT 10SM CLR 18/00 A3021 RMK AO2
KPOY 261415Z AUTO 13007KT 10SM CLR 17/00 A3021 RMK AO2
KPOY 261355Z AUTO 13007KT 10SM CLR 17/00 A3021 RMK AO2
KPOY 261335Z AUTO 13008KT 10SM CLR 17/00 A3021 RMK AO2
KPOY 261315Z AUTO 13005KT 10SM CLR 16/00 A3021 RMK AO2
KPOY 261255Z AUTO 13007KT 10SM CLR 15/M01 A3020 RMK AO2
KPOY 261235Z AUTO 13007KT 10SM CLR 14/M01 A3021 RMK AO2
KPOY 261215Z AUTO 10007KT 10SM CLR 12/M01 A3021 RMK AO2
KPOY 261155Z AUTO 13006KT 10SM CLR 12/M01 A3022 RMK AO2
KPOY 261135Z AUTO 14008KT 10SM CLR 11/M01 A3022 RMK AO2
KPOY 261115Z AUTO 11007KT 10SM CLR 12/M01 A3021 RMK AO2
KPOY 261055Z AUTO 12007KT 10SM CLR 13/M02 A3021 RMK AO2
KPOY 261035Z AUTO 12007KT 10SM CLR 13/M02 A3021 RMK AO2
KPOY 261015Z AUTO 12008KT 10SM CLR 13/M02 A3021 RMK AO2
KPOY 260955Z AUTO 15007KT 10SM CLR 13/M02 A3022 RMK AO2
KPOY 260935Z AUTO 16006KT 10SM CLR 13/M02 A3022 RMK AO2
KPOY 260915Z AUTO 16005KT 10SM CLR 15/M02 A3022 RMK AO2
KPOY 260855Z AUTO 17007KT 10SM CLR 15/M02 A3023 RMK AO2
KPOY 260835Z AUTO 18007KT 10SM CLR 16/M02 A3023 RMK AO2
KPOY 260815Z AUTO 19008KT 10SM CLR 16/M02 A3023 RMK AO2
KPOY 260755Z AUTO 18006KT 10SM CLR 15/M02 A3024 RMK AO2
KPOY 260735Z AUTO 18006KT 10SM CLR 15/M02 A3025 RMK AO2
KPOY 260715Z AUTO 18006KT 10SM CLR 15/M02 A3025 RMK AO2
KPOY 260655Z AUTO 17006KT 10SM CLR 15/M02 A3025 RMK AO2
KPOY 260635Z AUTO 16005KT 10SM CLR 15/M02 A3025 RMK AO2
KPOY 260615Z AUTO 14004KT 10SM CLR 15/M02 A3026 RMK AO2
KPOY 260555Z AUTO 14004KT 10SM CLR 16/M02 A3026 RMK AO2
KPOY 260535Z AUTO 11004KT 10SM CLR 16/M02 A3026 RMK AO2
KPOY 260515Z AUTO 09004KT 10SM CLR 15/M02 A3026 RMK AO2
KPOY 260455Z AUTO 08004KT 10SM CLR 16/M02 A3026 RMK AO2
KPOY 260435Z AUTO 07006KT 10SM CLR 17/M02 A3026 RMK AO2
KPOY 260415Z AUTO 08005KT 10SM CLR 16/M02 A3027 RMK AO2
KPOY 260355Z AUTO 11004KT 10SM CLR 17/M02 A3026 RMK AO2
KPOY 260335Z AUTO 14006KT 10SM CLR 18/M01 A3026 RMK AO2
KPOY 260315Z AUTO 01004KT 10SM CLR 18/M02 A3026 RMK AO2
KPOY 260255Z AUTO 02005KT 10SM CLR 20/M02 A3026 RMK AO2
KPOY 260235Z AUTO 36005KT 10SM CLR 21/M02 A3026 RMK AO2
KPOY 260215Z AUTO 36008KT 10SM CLR 21/M02 A3026 RMK AO2
KPOY 260155Z AUTO 35010KT 10SM CLR 22/M02 A3026 RMK AO2
KPOY 260135Z AUTO 35010G15KT 10SM CLR 22/M02 A3026 RMK AO2
KPOY 260115Z AUTO 34010G16KT 10SM CLR 23/M02 A3026 RMK AO2
KPOY 260055Z AUTO 35012KT 10SM CLR 23/M02 A3026 RMK AO2
KPOY 260035Z AUTO 35011G18KT 10SM CLR 24/M03 A3026 RMK AO2
KPOY 260015Z AUTO 34009G18KT 10SM CLR 24/M03 A3026 RMK AO2
KPOY 252355Z AUTO 35011G16KT 10SM CLR 25/M02 A3026 RMK AO2
KPOY 252335Z AUTO 35010G16KT 324V024 10SM CLR 25/M02 A3027 RMK AO2
KPOY 252315Z AUTO 02010G17KT 10SM CLR 25/M02 A3027 RMK AO2
KPOY 252255Z AUTO 02011G15KT 10SM CLR 26/M02 A3028 RMK AO2
KPOY 252235Z AUTO 35005G15KT 10SM CLR 26/M02 A3028 RMK AO2
KPOY 252215Z AUTO 11005G14KT 10SM CLR 25/M01 A3028 RMK AO2
KPOY 252155Z AUTO 11007KT 10SM CLR 25/00 A3028 RMK AO2
KPOY 252135Z AUTO 12004KT 10SM CLR 25/M01 A3028 RMK AO2
KPOY 252115Z AUTO 12007KT 104V174 10SM CLR 25/00 A3029 RMK AO2
KPOY 252055Z AUTO 10009G16KT 10SM CLR 25/00 A3029 RMK AO2


Page loaded:  08:41 UTC  |   01:41 AM Pacific  |   02:41 AM Mountain  |   03:41 AM Central  |   04:41 AM Eastern

 

ADVISORIES

FORECASTS

FORECASTS

OBSERVATIONS

USER TOOLS

ABOUT US